Fry, Georgia
Current Conditions -  °F | °C
As of 11:15 AM on Wednesday 22 Oct 2014 (Local Time) from KRZR Reporting Station
Few Clouds Few Clouds  
Wind Chill: 54°   Ceiling: Unl
Heat Index: 54°   Visibility: 10mi
Dew Point: 39°   Wind: 8mph
Humidity: 58%   Direction: 50°NE
Pressure: 30.21"   Gusts: NA
Location:  34.9342°N, 84.3792°W
Report Text: KRZR 221515Z AUTO 05007KT 10SM FEW027 12/04 A3021 RMK
Loading
Personal Weather Stations






























Interactive Weather Map
Tropical Storm Tracking
New forecast layout! Learn more

10-Day Weather Forecast

Advertisements
Track Severe Weather on mobile